sensor_id;sensor_type;location;lat;lon;timestamp;P1;durP1;ratioP1;P2;durP2;ratioP2
6217;SDS011;3142;48.206;11.550;2023-05-29T00:01:57;19.97;;;11.57;;
6217;SDS011;3142;48.206;11.550;2023-05-29T00:04:24;20.80;;;12.50;;
6217;SDS011;3142;48.206;11.550;2023-05-29T00:06:50;18.17;;;11.70;;
6217;SDS011;3142;48.206;11.550;2023-05-29T00:09:17;21.40;;;11.33;;
6217;SDS011;3142;48.206;11.550;2023-05-29T00:11:45;18.07;;;11.50;;
6217;SDS011;3142;48.206;11.550;2023-05-29T00:14:15;22.47;;;11.80;;
6217;SDS011;3142;48.206;11.550;2023-05-29T00:16:44;19.77;;;11.97;;
6217;SDS011;3142;48.206;11.550;2023-05-29T00:19:11;17.80;;;11.40;;
6217;SDS011;3142;48.206;11.550;2023-05-29T00:21:38;17.10;;;11.50;;
6217;SDS011;3142;48.206;11.550;2023-05-29T00:24:04;18.43;;;11.67;;
6217;SDS011;3142;48.206;11.550;2023-05-29T00:26:31;19.70;;;12.17;;
6217;SDS011;3142;48.206;11.550;2023-05-29T00:28:59;17.10;;;11.50;;
6217;SDS011;3142;48.206;11.550;2023-05-29T00:31:25;16.43;;;10.20;;
6217;SDS011;3142;48.206;11.550;2023-05-29T00:33:53;17.33;;;10.60;;
6217;SDS011;3142;48.206;11.550;2023-05-29T00:36:19;17.77;;;10.70;;
6217;SDS011;3142;48.206;11.550;2023-05-29T00:38:46;19.43;;;12.00;;
6217;SDS011;3142;48.206;11.550;2023-05-29T00:41:13;17.23;;;11.00;;
6217;SDS011;3142;48.206;11.550;2023-05-29T00:43:41;17.13;;;10.17;;
6217;SDS011;3142;48.206;11.550;2023-05-29T00:46:09;14.97;;;10.40;;
6217;SDS011;3142;48.206;11.550;2023-05-29T00:48:36;15.00;;;9.80;;
6217;SDS011;3142;48.206;11.550;2023-05-29T00:51:02;15.43;;;9.83;;
6217;SDS011;3142;48.206;11.550;2023-05-29T00:53:29;18.50;;;11.17;;
6217;SDS011;3142;48.206;11.550;2023-05-29T00:55:56;16.33;;;10.07;;
6217;SDS011;3142;48.206;11.550;2023-05-29T00:58:23;15.93;;;9.57;;
6217;SDS011;3142;48.206;11.550;2023-05-29T01:00:50;16.20;;;10.10;;
6217;SDS011;3142;48.206;11.550;2023-05-29T01:03:19;14.77;;;9.40;;
6217;SDS011;3142;48.206;11.550;2023-05-29T01:05:48;14.33;;;9.73;;
6217;SDS011;3142;48.206;11.550;2023-05-29T01:08:14;14.37;;;9.60;;
6217;SDS011;3142;48.206;11.550;2023-05-29T01:10:41;14.73;;;9.57;;
6217;SDS011;3142;48.206;11.550;2023-05-29T01:13:08;16.67;;;9.90;;
6217;SDS011;3142;48.206;11.550;2023-05-29T01:15:41;15.50;;;9.47;;
6217;SDS011;3142;48.206;11.550;2023-05-29T01:18:19;13.97;;;9.50;;
6217;SDS011;3142;48.206;11.550;2023-05-29T01:20:57;14.57;;;9.30;;
6217;SDS011;3142;48.206;11.550;2023-05-29T01:23:44;15.63;;;9.77;;
6217;SDS011;3142;48.206;11.550;2023-05-29T01:29:12;15.10;;;9.77;;
6217;SDS011;3142;48.206;11.550;2023-05-29T01:31:40;15.37;;;10.30;;
6217;SDS011;3142;48.206;11.550;2023-05-29T01:34:08;11.47;;;8.33;;
6217;SDS011;3142;48.206;11.550;2023-05-29T01:36:35;13.27;;;8.57;;
6217;SDS011;3142;48.206;11.550;2023-05-29T01:39:02;13.57;;;8.70;;
6217;SDS011;3142;48.206;11.550;2023-05-29T01:41:29;12.33;;;8.73;;
6217;SDS011;3142;48.206;11.550;2023-05-29T01:43:59;13.87;;;8.23;;
6217;SDS011;3142;48.206;11.550;2023-05-29T01:46:28;14.37;;;8.57;;
6217;SDS011;3142;48.206;11.550;2023-05-29T01:48:55;11.57;;;7.97;;
6217;SDS011;3142;48.206;11.550;2023-05-29T01:51:21;10.60;;;7.27;;
6217;SDS011;3142;48.206;11.550;2023-05-29T01:53:48;11.50;;;7.47;;
6217;SDS011;3142;48.206;11.550;2023-05-29T01:56:15;12.07;;;8.63;;
6217;SDS011;3142;48.206;11.550;2023-05-29T01:58:41;16.00;;;7.20;;
6217;SDS011;3142;48.206;11.550;2023-05-29T02:01:10;12.47;;;7.50;;
6217;SDS011;3142;48.206;11.550;2023-05-29T02:03:37;11.83;;;7.43;;
6217;SDS011;3142;48.206;11.550;2023-05-29T02:06:03;10.37;;;7.40;;
6217;SDS011;3142;48.206;11.550;2023-05-29T02:08:31;14.93;;;7.30;;
6217;SDS011;3142;48.206;11.550;2023-05-29T02:10:58;12.07;;;7.53;;
6217;SDS011;3142;48.206;11.550;2023-05-29T02:13:24;10.13;;;7.30;;
6217;SDS011;3142;48.206;11.550;2023-05-29T02:15:51;11.10;;;7.00;;
6217;SDS011;3142;48.206;11.550;2023-05-29T02:18:18;10.20;;;7.10;;
6217;SDS011;3142;48.206;11.550;2023-05-29T02:20:45;12.17;;;6.83;;
6217;SDS011;3142;48.206;11.550;2023-05-29T02:23:11;9.90;;;6.53;;
6217;SDS011;3142;48.206;11.550;2023-05-29T02:25:38;11.50;;;6.97;;
6217;SDS011;3142;48.206;11.550;2023-05-29T02:28:05;13.03;;;6.40;;
6217;SDS011;3142;48.206;11.550;2023-05-29T02:30:32;9.40;;;7.10;;
6217;SDS011;3142;48.206;11.550;2023-05-29T02:32:58;9.67;;;6.30;;
6217;SDS011;3142;48.206;11.550;2023-05-29T02:35:26;9.70;;;6.63;;
6217;SDS011;3142;48.206;11.550;2023-05-29T02:37:53;16.13;;;7.43;;
6217;SDS011;3142;48.206;11.550;2023-05-29T02:40:19;12.60;;;7.03;;
6217;SDS011;3142;48.206;11.550;2023-05-29T02:42:46;9.20;;;6.53;;
6217;SDS011;3142;48.206;11.550;2023-05-29T02:45:13;12.40;;;6.87;;
6217;SDS011;3142;48.206;11.550;2023-05-29T02:47:40;10.97;;;6.70;;
6217;SDS011;3142;48.206;11.550;2023-05-29T02:50:06;11.67;;;7.43;;
6217;SDS011;3142;48.206;11.550;2023-05-29T02:52:34;13.33;;;7.03;;
6217;SDS011;3142;48.206;11.550;2023-05-29T02:55:02;10.73;;;7.23;;
6217;SDS011;3142;48.206;11.550;2023-05-29T02:57:29;12.23;;;7.67;;
6217;SDS011;3142;48.206;11.550;2023-05-29T02:59:55;13.67;;;7.03;;
6217;SDS011;3142;48.206;11.550;2023-05-29T03:02:22;9.97;;;7.03;;
6217;SDS011;3142;48.206;11.550;2023-05-29T03:04:48;10.80;;;7.40;;
6217;SDS011;3142;48.206;11.550;2023-05-29T03:07:15;11.37;;;7.00;;
6217;SDS011;3142;48.206;11.550;2023-05-29T03:09:43;8.77;;;6.47;;
6217;SDS011;3142;48.206;11.550;2023-05-29T03:12:09;11.47;;;6.70;;
6217;SDS011;3142;48.206;11.550;2023-05-29T03:14:36;11.20;;;7.00;;
6217;SDS011;3142;48.206;11.550;2023-05-29T03:17:03;12.33;;;7.50;;
6217;SDS011;3142;48.206;11.550;2023-05-29T03:19:30;10.53;;;7.17;;
6217;SDS011;3142;48.206;11.550;2023-05-29T03:21:56;12.00;;;8.60;;
6217;SDS011;3142;48.206;11.550;2023-05-29T03:24:23;12.20;;;7.23;;
6217;SDS011;3142;48.206;11.550;2023-05-29T03:26:51;11.80;;;7.23;;
6217;SDS011;3142;48.206;11.550;2023-05-29T03:29:17;11.03;;;7.43;;
6217;SDS011;3142;48.206;11.550;2023-05-29T03:31:44;11.60;;;7.03;;
6217;SDS011;3142;48.206;11.550;2023-05-29T03:34:11;9.83;;;7.17;;
6217;SDS011;3142;48.206;11.550;2023-05-29T03:36:38;9.90;;;6.90;;
6217;SDS011;3142;48.206;11.550;2023-05-29T03:39:04;10.27;;;7.00;;
6217;SDS011;3142;48.206;11.550;2023-05-29T03:41:31;9.90;;;7.13;;
6217;SDS011;3142;48.206;11.550;2023-05-29T03:43:59;10.77;;;6.80;;
6217;SDS011;3142;48.206;11.550;2023-05-29T03:46:25;12.37;;;7.13;;
6217;SDS011;3142;48.206;11.550;2023-05-29T03:48:52;8.43;;;6.20;;
6217;SDS011;3142;48.206;11.550;2023-05-29T03:51:18;10.83;;;6.40;;
6217;SDS011;3142;48.206;11.550;2023-05-29T03:53:45;10.93;;;6.47;;
6217;SDS011;3142;48.206;11.550;2023-05-29T03:56:11;8.97;;;5.90;;
6217;SDS011;3142;48.206;11.550;2023-05-29T03:58:38;9.37;;;6.50;;
6217;SDS011;3142;48.206;11.550;2023-05-29T04:01:06;11.43;;;6.17;;
6217;SDS011;3142;48.206;11.550;2023-05-29T04:03:33;10.40;;;6.67;;
6217;SDS011;3142;48.206;11.550;2023-05-29T04:06:00;10.63;;;7.17;;
6217;SDS011;3142;48.206;11.550;2023-05-29T04:08:26;9.40;;;6.60;;
6217;SDS011;3142;48.206;11.550;2023-05-29T04:10:53;8.57;;;6.20;;
6217;SDS011;3142;48.206;11.550;2023-05-29T04:13:19;9.83;;;6.33;;
6217;SDS011;3142;48.206;11.550;2023-05-29T04:15:45;9.70;;;6.60;;
6217;SDS011;3142;48.206;11.550;2023-05-29T04:18:13;9.80;;;6.93;;
6217;SDS011;3142;48.206;11.550;2023-05-29T04:20:40;9.37;;;7.37;;
6217;SDS011;3142;48.206;11.550;2023-05-29T04:23:07;13.43;;;6.87;;
6217;SDS011;3142;48.206;11.550;2023-05-29T04:25:35;10.27;;;6.30;;
6217;SDS011;3142;48.206;11.550;2023-05-29T04:28:01;11.50;;;6.43;;
6217;SDS011;3142;48.206;11.550;2023-05-29T04:30:28;9.40;;;6.30;;
6217;SDS011;3142;48.206;11.550;2023-05-29T04:32:57;11.43;;;6.67;;
6217;SDS011;3142;48.206;11.550;2023-05-29T04:35:25;12.13;;;6.93;;
6217;SDS011;3142;48.206;11.550;2023-05-29T04:37:53;12.40;;;6.47;;
6217;SDS011;3142;48.206;11.550;2023-05-29T04:40:21;10.33;;;6.33;;
6217;SDS011;3142;48.206;11.550;2023-05-29T04:42:47;11.70;;;6.80;;
6217;SDS011;3142;48.206;11.550;2023-05-29T04:45:14;10.33;;;7.00;;
6217;SDS011;3142;48.206;11.550;2023-05-29T04:47:41;9.67;;;6.83;;
6217;SDS011;3142;48.206;11.550;2023-05-29T04:50:09;8.90;;;6.33;;
6217;SDS011;3142;48.206;11.550;2023-05-29T04:52:38;8.80;;;7.07;;
6217;SDS011;3142;48.206;11.550;2023-05-29T04:55:05;8.13;;;6.20;;
6217;SDS011;3142;48.206;11.550;2023-05-29T04:57:31;9.53;;;6.43;;
6217;SDS011;3142;48.206;11.550;2023-05-29T04:59:58;12.13;;;6.47;;
6217;SDS011;3142;48.206;11.550;2023-05-29T05:02:24;35.23;;;24.83;;
6217;SDS011;3142;48.206;11.550;2023-05-29T05:04:51;35.03;;;26.43;;
6217;SDS011;3142;48.206;11.550;2023-05-29T05:07:17;46.33;;;34.07;;
6217;SDS011;3142;48.206;11.550;2023-05-29T05:09:45;14.03;;;8.57;;
6217;SDS011;3142;48.206;11.550;2023-05-29T05:12:11;9.93;;;7.43;;
6217;SDS011;3142;48.206;11.550;2023-05-29T05:14:38;9.23;;;7.30;;
6217;SDS011;3142;48.206;11.550;2023-05-29T05:17:04;10.67;;;6.90;;
6217;SDS011;3142;48.206;11.550;2023-05-29T05:19:31;8.30;;;6.47;;
6217;SDS011;3142;48.206;11.550;2023-05-29T05:21:57;10.93;;;7.30;;
6217;SDS011;3142;48.206;11.550;2023-05-29T05:24:24;10.33;;;6.60;;
6217;SDS011;3142;48.206;11.550;2023-05-29T05:26:52;17.83;;;6.80;;
6217;SDS011;3142;48.206;11.550;2023-05-29T05:29:18;10.30;;;6.53;;
6217;SDS011;3142;48.206;11.550;2023-05-29T05:31:45;15.07;;;8.87;;
6217;SDS011;3142;48.206;11.550;2023-05-29T05:34:11;15.13;;;9.73;;
6217;SDS011;3142;48.206;11.550;2023-05-29T05:36:38;14.70;;;7.07;;
6217;SDS011;3142;48.206;11.550;2023-05-29T05:39:04;11.57;;;7.33;;
6217;SDS011;3142;48.206;11.550;2023-05-29T05:41:31;10.57;;;6.40;;
6217;SDS011;3142;48.206;11.550;2023-05-29T05:43:59;10.50;;;6.10;;
6217;SDS011;3142;48.206;11.550;2023-05-29T05:46:25;10.50;;;6.50;;
6217;SDS011;3142;48.206;11.550;2023-05-29T05:48:52;9.30;;;6.50;;
6217;SDS011;3142;48.206;11.550;2023-05-29T05:51:22;8.67;;;5.93;;
6217;SDS011;3142;48.206;11.550;2023-05-29T05:53:48;9.50;;;5.70;;
6217;SDS011;3142;48.206;11.550;2023-05-29T05:56:14;8.77;;;5.87;;
6217;SDS011;3142;48.206;11.550;2023-05-29T05:58:41;13.07;;;6.03;;
6217;SDS011;3142;48.206;11.550;2023-05-29T06:01:09;11.00;;;6.73;;
6217;SDS011;3142;48.206;11.550;2023-05-29T06:03:35;9.20;;;6.20;;
6217;SDS011;3142;48.206;11.550;2023-05-29T06:06:02;13.43;;;8.00;;
6217;SDS011;3142;48.206;11.550;2023-05-29T06:08:29;12.73;;;6.03;;
6217;SDS011;3142;48.206;11.550;2023-05-29T06:10:56;11.37;;;6.83;;
6217;SDS011;3142;48.206;11.550;2023-05-29T06:13:22;18.87;;;12.33;;
6217;SDS011;3142;48.206;11.550;2023-05-29T06:15:49;9.70;;;7.33;;
6217;SDS011;3142;48.206;11.550;2023-05-29T06:18:16;11.37;;;7.10;;
6217;SDS011;3142;48.206;11.550;2023-05-29T06:20:43;10.93;;;6.63;;
6217;SDS011;3142;48.206;11.550;2023-05-29T06:23:09;8.87;;;5.43;;
6217;SDS011;3142;48.206;11.550;2023-05-29T06:25:36;12.57;;;6.43;;
6217;SDS011;3142;48.206;11.550;2023-05-29T06:28:03;8.20;;;6.33;;
6217;SDS011;3142;48.206;11.550;2023-05-29T06:30:30;10.97;;;5.77;;
6217;SDS011;3142;48.206;11.550;2023-05-29T06:32:57;10.93;;;7.70;;
6217;SDS011;3142;48.206;11.550;2023-05-29T06:35:25;10.83;;;7.90;;
6217;SDS011;3142;48.206;11.550;2023-05-29T06:37:51;7.80;;;5.77;;
6217;SDS011;3142;48.206;11.550;2023-05-29T06:40:18;10.20;;;6.27;;
6217;SDS011;3142;48.206;11.550;2023-05-29T06:42:44;9.93;;;5.80;;
6217;SDS011;3142;48.206;11.550;2023-05-29T06:45:11;10.23;;;7.27;;
6217;SDS011;3142;48.206;11.550;2023-05-29T06:47:39;10.30;;;6.67;;
6217;SDS011;3142;48.206;11.550;2023-05-29T06:50:06;11.10;;;8.17;;
6217;SDS011;3142;48.206;11.550;2023-05-29T06:52:35;12.27;;;6.73;;
6217;SDS011;3142;48.206;11.550;2023-05-29T06:55:01;8.77;;;6.00;;
6217;SDS011;3142;48.206;11.550;2023-05-29T06:57:28;11.17;;;6.47;;
6217;SDS011;3142;48.206;11.550;2023-05-29T06:59:54;14.47;;;5.83;;
6217;SDS011;3142;48.206;11.550;2023-05-29T07:02:20;6.70;;;5.53;;
6217;SDS011;3142;48.206;11.550;2023-05-29T07:04:47;9.30;;;6.93;;
6217;SDS011;3142;48.206;11.550;2023-05-29T07:07:13;9.10;;;6.17;;
6217;SDS011;3142;48.206;11.550;2023-05-29T07:09:41;11.03;;;6.30;;
6217;SDS011;3142;48.206;11.550;2023-05-29T07:12:08;8.57;;;5.50;;
6217;SDS011;3142;48.206;11.550;2023-05-29T07:14:34;11.10;;;6.17;;
6217;SDS011;3142;48.206;11.550;2023-05-29T07:17:00;9.57;;;6.17;;
6217;SDS011;3142;48.206;11.550;2023-05-29T07:19:27;12.67;;;5.70;;
6217;SDS011;3142;48.206;11.550;2023-05-29T07:21:54;9.10;;;6.43;;
6217;SDS011;3142;48.206;11.550;2023-05-29T07:24:20;8.23;;;5.63;;
6217;SDS011;3142;48.206;11.550;2023-05-29T07:26:48;14.63;;;10.77;;
6217;SDS011;3142;48.206;11.550;2023-05-29T07:29:15;12.60;;;9.50;;
6217;SDS011;3142;48.206;11.550;2023-05-29T07:31:42;10.73;;;8.07;;
6217;SDS011;3142;48.206;11.550;2023-05-29T07:34:09;12.23;;;6.93;;
6217;SDS011;3142;48.206;11.550;2023-05-29T07:36:36;8.43;;;6.37;;
6217;SDS011;3142;48.206;11.550;2023-05-29T07:39:02;13.57;;;9.23;;
6217;SDS011;3142;48.206;11.550;2023-05-29T07:41:30;17.00;;;12.00;;
6217;SDS011;3142;48.206;11.550;2023-05-29T07:43:58;10.30;;;7.03;;
6217;SDS011;3142;48.206;11.550;2023-05-29T07:46:24;8.60;;;6.00;;
6217;SDS011;3142;48.206;11.550;2023-05-29T07:48:51;11.80;;;6.10;;
6217;SDS011;3142;48.206;11.550;2023-05-29T07:51:17;7.60;;;5.77;;
6217;SDS011;3142;48.206;11.550;2023-05-29T07:53:44;8.53;;;5.70;;
6217;SDS011;3142;48.206;11.550;2023-05-29T07:56:11;9.90;;;5.97;;
6217;SDS011;3142;48.206;11.550;2023-05-29T07:58:38;6.97;;;5.70;;
6217;SDS011;3142;48.206;11.550;2023-05-29T08:01:07;9.03;;;5.40;;
6217;SDS011;3142;48.206;11.550;2023-05-29T08:03:34;9.13;;;6.22;;
6217;SDS011;3142;48.206;11.550;2023-05-29T08:06:00;8.95;;;5.57;;
6217;SDS011;3142;48.206;11.550;2023-05-29T08:08:28;12.35;;;6.57;;
6217;SDS011;3142;48.206;11.550;2023-05-29T08:10:55;14.73;;;5.97;;
6217;SDS011;3142;48.206;11.550;2023-05-29T08:13:21;8.80;;;5.78;;
6217;SDS011;3142;48.206;11.550;2023-05-29T08:15:48;9.07;;;5.90;;
6217;SDS011;3142;48.206;11.550;2023-05-29T08:18:16;8.45;;;5.72;;
6217;SDS011;3142;48.206;11.550;2023-05-29T08:20:42;9.50;;;5.90;;
6217;SDS011;3142;48.206;11.550;2023-05-29T08:23:09;22.77;;;17.05;;
6217;SDS011;3142;48.206;11.550;2023-05-29T08:25:36;22.20;;;15.23;;
6217;SDS011;3142;48.206;11.550;2023-05-29T08:28:02;8.02;;;6.05;;
6217;SDS011;3142;48.206;11.550;2023-05-29T08:30:29;9.25;;;5.25;;
6217;SDS011;3142;48.206;11.550;2023-05-29T08:32:56;11.90;;;5.72;;
6217;SDS011;3142;48.206;11.550;2023-05-29T08:35:23;9.57;;;5.85;;
6217;SDS011;3142;48.206;11.550;2023-05-29T08:37:50;10.63;;;6.40;;
6217;SDS011;3142;48.206;11.550;2023-05-29T08:40:17;6.68;;;5.97;;
6217;SDS011;3142;48.206;11.550;2023-05-29T08:42:45;11.63;;;6.43;;
6217;SDS011;3142;48.206;11.550;2023-05-29T08:45:13;10.88;;;8.38;;
6217;SDS011;3142;48.206;11.550;2023-05-29T08:47:40;12.77;;;9.93;;
6217;SDS011;3142;48.206;11.550;2023-05-29T08:50:07;12.88;;;6.88;;
6217;SDS011;3142;48.206;11.550;2023-05-29T08:52:35;9.52;;;6.00;;
6217;SDS011;3142;48.206;11.550;2023-05-29T08:55:03;8.68;;;5.93;;
6217;SDS011;3142;48.206;11.550;2023-05-29T08:57:31;8.65;;;5.25;;
6217;SDS011;3142;48.206;11.550;2023-05-29T08:59:58;9.68;;;5.18;;
6217;SDS011;3142;48.206;11.550;2023-05-29T09:02:26;8.23;;;5.75;;
6217;SDS011;3142;48.206;11.550;2023-05-29T09:04:53;7.53;;;5.03;;
6217;SDS011;3142;48.206;11.550;2023-05-29T09:07:22;5.07;;;4.53;;
6217;SDS011;3142;48.206;11.550;2023-05-29T09:09:52;7.18;;;5.00;;
6217;SDS011;3142;48.206;11.550;2023-05-29T09:12:18;7.10;;;4.82;;
6217;SDS011;3142;48.206;11.550;2023-05-29T09:14:45;6.80;;;4.95;;
6217;SDS011;3142;48.206;11.550;2023-05-29T09:17:12;9.93;;;5.45;;
6217;SDS011;3142;48.206;11.550;2023-05-29T09:19:40;6.38;;;4.68;;
6217;SDS011;3142;48.206;11.550;2023-05-29T09:22:07;8.30;;;5.22;;
6217;SDS011;3142;48.206;11.550;2023-05-29T09:24:37;10.35;;;5.07;;
6217;SDS011;3142;48.206;11.550;2023-05-29T09:27:05;12.13;;;9.75;;
6217;SDS011;3142;48.206;11.550;2023-05-29T09:29:33;7.95;;;6.50;;
6217;SDS011;3142;48.206;11.550;2023-05-29T09:32:03;9.15;;;5.50;;
6217;SDS011;3142;48.206;11.550;2023-05-29T09:34:33;7.57;;;5.15;;
6217;SDS011;3142;48.206;11.550;2023-05-29T09:37:00;7.82;;;5.10;;
6217;SDS011;3142;48.206;11.550;2023-05-29T09:39:33;8.15;;;4.25;;
6217;SDS011;3142;48.206;11.550;2023-05-29T09:41:59;6.80;;;5.30;;
6217;SDS011;3142;48.206;11.550;2023-05-29T09:44:27;7.60;;;4.72;;
6217;SDS011;3142;48.206;11.550;2023-05-29T09:46:57;6.95;;;5.03;;
6217;SDS011;3142;48.206;11.550;2023-05-29T09:49:24;8.82;;;4.40;;
6217;SDS011;3142;48.206;11.550;2023-05-29T09:51:53;6.40;;;5.20;;
6217;SDS011;3142;48.206;11.550;2023-05-29T09:54:19;7.90;;;4.53;;
6217;SDS011;3142;48.206;11.550;2023-05-29T09:56:46;5.88;;;4.80;;
6217;SDS011;3142;48.206;11.550;2023-05-29T09:59:14;7.10;;;5.22;;
6217;SDS011;3142;48.206;11.550;2023-05-29T10:01:44;8.18;;;6.13;;
6217;SDS011;3142;48.206;11.550;2023-05-29T10:04:11;13.88;;;9.95;;
6217;SDS011;3142;48.206;11.550;2023-05-29T10:06:41;12.82;;;9.13;;
6217;SDS011;3142;48.206;11.550;2023-05-29T10:09:12;6.22;;;5.00;;
6217;SDS011;3142;48.206;11.550;2023-05-29T10:11:40;7.63;;;4.20;;
6217;SDS011;3142;48.206;11.550;2023-05-29T10:14:09;6.88;;;3.85;;
6217;SDS011;3142;48.206;11.550;2023-05-29T10:16:41;5.97;;;3.58;;
6217;SDS011;3142;48.206;11.550;2023-05-29T10:19:12;7.85;;;4.50;;
6217;SDS011;3142;48.206;11.550;2023-05-29T10:21:40;4.95;;;3.95;;
6217;SDS011;3142;48.206;11.550;2023-05-29T10:24:09;5.00;;;4.00;;
6217;SDS011;3142;48.206;11.550;2023-05-29T10:26:38;9.70;;;4.60;;
6217;SDS011;3142;48.206;11.550;2023-05-29T10:29:08;7.88;;;3.95;;
6217;SDS011;3142;48.206;11.550;2023-05-29T10:31:39;6.93;;;3.92;;
6217;SDS011;3142;48.206;11.550;2023-05-29T10:34:18;6.88;;;4.30;;
6217;SDS011;3142;48.206;11.550;2023-05-29T10:36:56;5.85;;;4.57;;
6217;SDS011;3142;48.206;11.550;2023-05-29T10:39:30;7.68;;;3.83;;
6217;SDS011;3142;48.206;11.550;2023-05-29T10:41:58;7.53;;;4.47;;
6217;SDS011;3142;48.206;11.550;2023-05-29T10:44:38;8.63;;;6.10;;
6217;SDS011;3142;48.206;11.550;2023-05-29T10:47:06;9.95;;;5.00;;
6217;SDS011;3142;48.206;11.550;2023-05-29T10:49:35;8.00;;;4.68;;
6217;SDS011;3142;48.206;11.550;2023-05-29T10:52:02;6.03;;;4.32;;
6217;SDS011;3142;48.206;11.550;2023-05-29T10:54:39;6.93;;;4.40;;
6217;SDS011;3142;48.206;11.550;2023-05-29T10:57:07;6.50;;;4.13;;
6217;SDS011;3142;48.206;11.550;2023-05-29T10:59:35;6.75;;;4.70;;
6217;SDS011;3142;48.206;11.550;2023-05-29T11:02:02;7.88;;;4.72;;
6217;SDS011;3142;48.206;11.550;2023-05-29T11:04:30;6.40;;;4.45;;
6217;SDS011;3142;48.206;11.550;2023-05-29T11:07:00;5.35;;;4.07;;
6217;SDS011;3142;48.206;11.550;2023-05-29T11:09:31;5.47;;;4.72;;
6217;SDS011;3142;48.206;11.550;2023-05-29T11:12:10;11.35;;;8.32;;
6217;SDS011;3142;48.206;11.550;2023-05-29T11:14:53;16.63;;;14.82;;
6217;SDS011;3142;48.206;11.550;2023-05-29T11:17:42;8.13;;;5.05;;
6217;SDS011;3142;48.206;11.550;2023-05-29T11:20:16;7.72;;;4.80;;
6217;SDS011;3142;48.206;11.550;2023-05-29T11:22:52;6.30;;;3.92;;
6217;SDS011;3142;48.206;11.550;2023-05-29T11:25:26;7.20;;;4.15;;
6217;SDS011;3142;48.206;11.550;2023-05-29T11:27:53;8.68;;;4.78;;
6217;SDS011;3142;48.206;11.550;2023-05-29T11:30:19;8.38;;;4.90;;
6217;SDS011;3142;48.206;11.550;2023-05-29T11:32:47;6.80;;;4.03;;
6217;SDS011;3142;48.206;11.550;2023-05-29T11:35:14;6.90;;;4.38;;
6217;SDS011;3142;48.206;11.550;2023-05-29T11:37:42;5.30;;;3.97;;
6217;SDS011;3142;48.206;11.550;2023-05-29T11:40:13;6.25;;;4.53;;
6217;SDS011;3142;48.206;11.550;2023-05-29T11:42:41;6.90;;;4.15;;
6217;SDS011;3142;48.206;11.550;2023-05-29T11:45:11;5.88;;;3.97;;
6217;SDS011;3142;48.206;11.550;2023-05-29T11:47:53;5.00;;;4.30;;
6217;SDS011;3142;48.206;11.550;2023-05-29T11:50:21;6.38;;;3.80;;
6217;SDS011;3142;48.206;11.550;2023-05-29T11:52:49;9.85;;;7.05;;
6217;SDS011;3142;48.206;11.550;2023-05-29T11:55:17;5.72;;;4.65;;
6217;SDS011;3142;48.206;11.550;2023-05-29T11:57:45;7.93;;;6.30;;
6217;SDS011;3142;48.206;11.550;2023-05-29T12:00:12;18.15;;;12.93;;
6217;SDS011;3142;48.206;11.550;2023-05-29T12:02:41;8.90;;;6.80;;
6217;SDS011;3142;48.206;11.550;2023-05-29T12:05:09;6.45;;;4.88;;
6217;SDS011;3142;48.206;11.550;2023-05-29T12:07:38;5.55;;;3.65;;
6217;SDS011;3142;48.206;11.550;2023-05-29T12:10:08;5.30;;;3.97;;
6217;SDS011;3142;48.206;11.550;2023-05-29T12:12:37;6.30;;;3.90;;
6217;SDS011;3142;48.206;11.550;2023-05-29T12:15:04;5.10;;;3.95;;
6217;SDS011;3142;48.206;11.550;2023-05-29T12:17:32;6.60;;;4.18;;
6217;SDS011;3142;48.206;11.550;2023-05-29T12:19:58;4.15;;;3.45;;
6217;SDS011;3142;48.206;11.550;2023-05-29T12:22:32;5.85;;;4.10;;
6217;SDS011;3142;48.206;11.550;2023-05-29T12:25:03;8.05;;;4.25;;
6217;SDS011;3142;48.206;11.550;2023-05-29T12:27:31;5.90;;;4.60;;
6217;SDS011;3142;48.206;11.550;2023-05-29T12:30:04;7.35;;;4.22;;
6217;SDS011;3142;48.206;11.550;2023-05-29T12:32:35;21.45;;;16.25;;
6217;SDS011;3142;48.206;11.550;2023-05-29T12:35:09;6.38;;;5.10;;
6217;SDS011;3142;48.206;11.550;2023-05-29T12:37:43;14.63;;;12.85;;
6217;SDS011;3142;48.206;11.550;2023-05-29T12:40:15;7.82;;;4.93;;
6217;SDS011;3142;48.206;11.550;2023-05-29T12:42:45;5.55;;;3.95;;
6217;SDS011;3142;48.206;11.550;2023-05-29T12:45:13;10.13;;;4.43;;
6217;SDS011;3142;48.206;11.550;2023-05-29T12:47:50;5.85;;;4.07;;
6217;SDS011;3142;48.206;11.550;2023-05-29T12:50:21;5.80;;;3.58;;
6217;SDS011;3142;48.206;11.550;2023-05-29T12:52:58;4.35;;;3.55;;
6217;SDS011;3142;48.206;11.550;2023-05-29T12:55:26;4.43;;;3.70;;
6217;SDS011;3142;48.206;11.550;2023-05-29T12:57:53;5.97;;;3.97;;
6217;SDS011;3142;48.206;11.550;2023-05-29T13:00:22;6.70;;;3.50;;
6217;SDS011;3142;48.206;11.550;2023-05-29T13:02:49;7.75;;;3.53;;
6217;SDS011;3142;48.206;11.550;2023-05-29T13:05:16;4.63;;;4.07;;
6217;SDS011;3142;48.206;11.550;2023-05-29T13:07:44;4.82;;;3.45;;
6217;SDS011;3142;48.206;11.550;2023-05-29T13:10:12;6.57;;;3.72;;
6217;SDS011;3142;48.206;11.550;2023-05-29T13:12:39;4.68;;;3.83;;
6217;SDS011;3142;48.206;11.550;2023-05-29T13:15:06;8.10;;;4.05;;
6217;SDS011;3142;48.206;11.550;2023-05-29T13:17:35;6.05;;;3.70;;
6217;SDS011;3142;48.206;11.550;2023-05-29T13:20:01;5.30;;;3.90;;
6217;SDS011;3142;48.206;11.550;2023-05-29T13:22:31;4.22;;;3.80;;
6217;SDS011;3142;48.206;11.550;2023-05-29T13:24:57;6.40;;;3.97;;
6217;SDS011;3142;48.206;11.550;2023-05-29T13:27:25;6.88;;;3.63;;
6217;SDS011;3142;48.206;11.550;2023-05-29T13:29:51;5.70;;;3.58;;
6217;SDS011;3142;48.206;11.550;2023-05-29T13:32:18;4.35;;;3.50;;
6217;SDS011;3142;48.206;11.550;2023-05-29T13:34:46;6.07;;;4.10;;
6217;SDS011;3142;48.206;11.550;2023-05-29T13:37:13;5.13;;;3.40;;
6217;SDS011;3142;48.206;11.550;2023-05-29T13:39:39;4.80;;;3.90;;
6217;SDS011;3142;48.206;11.550;2023-05-29T13:42:07;7.38;;;4.30;;
6217;SDS011;3142;48.206;11.550;2023-05-29T13:44:34;6.65;;;4.75;;
6217;SDS011;3142;48.206;11.550;2023-05-29T13:47:01;6.43;;;5.45;;
6217;SDS011;3142;48.206;11.550;2023-05-29T13:49:27;6.75;;;5.18;;
6217;SDS011;3142;48.206;11.550;2023-05-29T13:51:55;5.82;;;4.40;;
6217;SDS011;3142;48.206;11.550;2023-05-29T13:54:21;6.10;;;4.18;;
6217;SDS011;3142;48.206;11.550;2023-05-29T13:56:48;6.35;;;4.25;;
6217;SDS011;3142;48.206;11.550;2023-05-29T13:59:14;5.15;;;3.80;;
6217;SDS011;3142;48.206;11.550;2023-05-29T14:01:41;5.65;;;4.20;;
6217;SDS011;3142;48.206;11.550;2023-05-29T14:04:07;6.25;;;4.13;;
6217;SDS011;3142;48.206;11.550;2023-05-29T14:06:34;7.90;;;3.85;;
6217;SDS011;3142;48.206;11.550;2023-05-29T14:09:03;6.80;;;4.20;;
6217;SDS011;3142;48.206;11.550;2023-05-29T14:11:29;4.85;;;3.70;;
6217;SDS011;3142;48.206;11.550;2023-05-29T14:14:00;8.05;;;7.20;;
6217;SDS011;3142;48.206;11.550;2023-05-29T14:16:26;12.07;;;8.20;;
6217;SDS011;3142;48.206;11.550;2023-05-29T14:18:53;8.20;;;4.80;;
6217;SDS011;3142;48.206;11.550;2023-05-29T14:21:19;5.35;;;3.90;;
6217;SDS011;3142;48.206;11.550;2023-05-29T14:23:45;6.82;;;4.03;;
6217;SDS011;3142;48.206;11.550;2023-05-29T14:26:13;5.10;;;3.58;;
6217;SDS011;3142;48.206;11.550;2023-05-29T14:28:40;6.05;;;4.47;;
6217;SDS011;3142;48.206;11.550;2023-05-29T14:31:07;5.35;;;3.88;;
6217;SDS011;3142;48.206;11.550;2023-05-29T14:33:33;6.72;;;3.80;;
6217;SDS011;3142;48.206;11.550;2023-05-29T14:36:01;4.68;;;3.70;;
6217;SDS011;3142;48.206;11.550;2023-05-29T14:38:28;5.43;;;3.97;;
6217;SDS011;3142;48.206;11.550;2023-05-29T14:40:55;5.20;;;3.95;;
6217;SDS011;3142;48.206;11.550;2023-05-29T14:43:23;8.38;;;4.05;;
6217;SDS011;3142;48.206;11.550;2023-05-29T14:45:50;5.13;;;3.60;;
6217;SDS011;3142;48.206;11.550;2023-05-29T14:48:16;6.50;;;3.83;;
6217;SDS011;3142;48.206;11.550;2023-05-29T14:50:42;5.50;;;3.63;;
6217;SDS011;3142;48.206;11.550;2023-05-29T14:53:09;5.97;;;3.38;;
6217;SDS011;3142;48.206;11.550;2023-05-29T14:55:35;6.40;;;4.10;;
6217;SDS011;3142;48.206;11.550;2023-05-29T14:58:02;4.78;;;3.50;;
6217;SDS011;3142;48.206;11.550;2023-05-29T15:00:30;4.78;;;3.67;;